createdAt,value
2019-05-03T00:00:27.259Z,59.60
2019-05-03T00:03:04.342Z,59.60
2019-05-03T00:05:35.681Z,59.80
2019-05-03T00:08:05.700Z,59.50
2019-05-03T00:10:36.036Z,59.40
2019-05-03T00:13:05.837Z,59.40
2019-05-03T00:15:36.671Z,59.60
2019-05-03T00:18:06.286Z,59.30
2019-05-03T00:20:36.093Z,59.70
2019-05-03T00:23:05.909Z,59.70
2019-05-03T00:25:35.724Z,59.80
2019-05-03T00:28:05.537Z,59.80
2019-05-03T00:30:35.349Z,59.90
2019-05-03T00:33:05.156Z,60.00
2019-05-03T00:35:36.405Z,60.20
2019-05-03T00:38:07.460Z,60.30
2019-05-03T00:40:37.156Z,60.30
2019-05-03T00:43:06.565Z,60.40
2019-05-03T00:45:36.270Z,60.50
2019-05-03T00:48:06.081Z,60.90
2019-05-03T00:50:35.691Z,61.70
2019-05-03T00:53:05.401Z,61.40
2019-05-03T00:55:35.119Z,61.70
2019-05-03T00:58:04.922Z,61.70
2019-05-03T01:00:34.733Z,62.00
2019-05-03T01:03:04.184Z,62.00
2019-05-03T01:05:34.161Z,62.20
2019-05-03T01:08:03.430Z,62.90
2019-05-03T01:10:33.197Z,63.20
2019-05-03T01:13:02.983Z,63.40
2019-05-03T01:15:46.618Z,63.60
2019-05-03T01:18:17.964Z,63.30
2019-05-03T01:20:47.280Z,63.10
2019-05-03T01:23:16.881Z,63.00
2019-05-03T01:25:46.789Z,63.30
2019-05-03T01:28:16.200Z,63.20
2019-05-03T01:30:45.797Z,63.50
2019-05-03T01:33:15.617Z,63.50
2019-05-03T01:35:45.030Z,64.00
2019-05-03T01:38:14.717Z,63.90
2019-05-03T01:40:44.326Z,63.60
2019-05-03T01:43:13.677Z,63.60
2019-05-03T01:45:43.345Z,64.00
2019-05-03T01:48:26.588Z,63.90
2019-05-03T01:51:06.589Z,64.10
2019-05-03T01:53:37.964Z,64.00
2019-05-03T01:56:07.783Z,64.80
2019-05-03T01:58:37.569Z,64.60
2019-05-03T02:01:12.648Z,64.50
2019-05-03T02:03:49.809Z,64.40
2019-05-03T02:06:19.317Z,64.30
2019-05-03T02:08:48.826Z,65.00
2019-05-03T02:11:18.738Z,65.10
2019-05-03T02:13:48.348Z,65.50
2019-05-03T02:16:17.605Z,65.30
2019-05-03T02:18:46.985Z,65.10
2019-05-03T02:21:16.676Z,64.60
2019-05-03T02:23:46.374Z,64.10
2019-05-03T02:26:16.081Z,63.90
2019-05-03T02:28:45.782Z,64.70
2019-05-03T02:31:15.619Z,63.50
2019-05-03T02:33:45.210Z,63.60
2019-05-03T02:36:14.915Z,63.40
2019-05-03T02:38:44.629Z,63.50
2019-05-03T02:41:14.435Z,63.20
2019-05-03T02:43:48.963Z,63.30
2019-05-03T02:46:29.632Z,63.10
2019-05-03T02:49:15.283Z,62.50
2019-05-03T02:51:46.072Z,62.30
2019-05-03T02:54:15.961Z,63.80
2019-05-03T02:56:46.199Z,61.90
2019-05-03T02:59:16.167Z,62.20
2019-05-03T03:01:46.584Z,60.90
2019-05-03T03:04:16.436Z,60.70
2019-05-03T03:06:46.153Z,61.20
2019-05-03T03:09:16.630Z,60.40
2019-05-03T03:11:46.056Z,59.60
2019-05-03T03:14:16.741Z,59.70
2019-05-03T03:16:50.122Z,59.10
2019-05-03T03:19:19.734Z,58.90
2019-05-03T03:21:49.738Z,58.80
2019-05-03T03:24:22.131Z,58.40
2019-05-03T03:26:51.820Z,58.20
2019-05-03T03:29:25.464Z,58.90
2019-05-03T03:32:18.138Z,58.20
2019-05-03T03:35:02.990Z,58.00
2019-05-03T03:37:29.978Z,58.40
2019-05-03T03:39:59.789Z,58.50
2019-05-03T03:42:29.392Z,58.10
2019-05-03T03:44:59.119Z,58.90
2019-05-03T03:47:29.840Z,58.30
2019-05-03T03:49:59.357Z,58.50
2019-05-03T03:52:28.859Z,58.70
2019-05-03T03:54:58.760Z,57.90
2019-05-03T03:57:28.472Z,58.20
2019-05-03T03:59:57.748Z,58.80
2019-05-03T04:02:27.474Z,58.90
2019-05-03T04:04:56.687Z,57.90
2019-05-03T04:07:26.471Z,58.60
2019-05-03T04:09:56.326Z,58.40
2019-05-03T04:12:26.743Z,57.30
2019-05-03T04:15:16.408Z,57.20
2019-05-03T04:18:05.599Z,56.40
2019-05-03T04:20:37.125Z,56.60
2019-05-03T04:23:06.844Z,56.40
2019-05-03T04:25:36.557Z,56.30
2019-05-03T04:28:06.256Z,56.30
2019-05-03T04:30:36.464Z,56.20
2019-05-03T04:33:06.433Z,55.80
2019-05-03T04:35:36.743Z,56.10
2019-05-03T04:38:08.274Z,55.90
2019-05-03T04:40:38.138Z,55.30
2019-05-03T04:43:08.005Z,54.60
2019-05-03T04:45:37.811Z,54.70
2019-05-03T04:48:07.529Z,53.90
2019-05-03T04:50:37.559Z,53.60
2019-05-03T04:53:07.580Z,53.00
2019-05-03T04:55:37.374Z,52.70
2019-05-03T04:58:07.204Z,51.60
2019-05-03T05:00:36.629Z,51.30
2019-05-03T05:03:06.319Z,51.40
2019-05-03T05:05:36.541Z,50.60
2019-05-03T05:08:06.505Z,50.80
2019-05-03T05:10:36.561Z,50.60
2019-05-03T05:13:07.555Z,50.40
2019-05-03T05:15:37.611Z,50.10
2019-05-03T05:18:08.764Z,50.00
2019-05-03T05:20:42.970Z,50.20
2019-05-03T05:23:14.616Z,51.00
2019-05-03T05:26:01.635Z,51.00
2019-05-03T05:28:32.879Z,51.30
2019-05-03T05:31:04.698Z,51.80
2019-05-03T05:33:35.362Z,51.10
2019-05-03T05:36:05.097Z,51.10
2019-05-03T05:38:34.906Z,51.00
2019-05-03T05:41:05.303Z,50.50
2019-05-03T05:43:35.685Z,50.20
2019-05-03T05:46:05.774Z,50.20
2019-05-03T05:48:37.121Z,49.90
2019-05-03T05:51:06.475Z,50.30
2019-05-03T05:53:36.032Z,50.50
2019-05-03T05:56:25.505Z,50.90
2019-05-03T05:58:56.853Z,50.50
2019-05-03T06:01:28.194Z,49.70
2019-05-03T06:03:57.808Z,48.40
2019-05-03T06:06:45.644Z,48.70
2019-05-03T06:09:34.446Z,48.20
2019-05-03T06:12:11.678Z,47.70
2019-05-03T06:14:42.931Z,48.40
2019-05-03T06:17:14.688Z,47.40
2019-05-03T06:19:46.056Z,48.10
2019-05-03T06:22:26.406Z,47.50
2019-05-03T06:25:00.728Z,46.80
2019-05-03T06:27:35.041Z,46.30
2019-05-03T06:30:07.978Z,47.30
2019-05-03T06:32:39.409Z,46.50
2019-05-03T06:35:09.099Z,47.80
2019-05-03T06:37:43.408Z,47.10
2019-05-03T06:40:14.964Z,47.60
2019-05-03T06:42:52.550Z,47.70
2019-05-03T06:45:16.841Z,47.30
2019-05-03T06:47:49.983Z,46.60
2019-05-03T06:50:19.437Z,48.00
2019-05-03T06:52:49.345Z,49.50
2019-05-03T06:55:18.953Z,46.00
2019-05-03T06:57:49.860Z,44.20
2019-05-03T07:00:24.811Z,45.30
2019-05-03T07:02:59.254Z,44.40
2019-05-03T07:05:36.125Z,44.80
2019-05-03T07:08:10.137Z,43.80
2019-05-03T07:10:41.527Z,43.00
2019-05-03T07:13:11.410Z,44.40
2019-05-03T07:15:41.114Z,43.50
2019-05-03T07:18:10.920Z,44.60
2019-05-03T07:20:45.976Z,44.30
2019-05-03T07:23:15.729Z,46.60
2019-05-03T07:25:45.581Z,47.10
2019-05-03T07:28:15.294Z,47.10
2019-05-03T07:30:45.434Z,47.40
2019-05-03T07:33:22.657Z,47.20
2019-05-03T07:35:52.022Z,45.20
2019-05-03T07:38:21.720Z,47.60
2019-05-03T07:40:51.426Z,47.00
2019-05-03T07:43:22.168Z,44.80
2019-05-03T07:45:51.877Z,45.50
2019-05-03T07:48:21.678Z,46.70
2019-05-03T07:50:51.029Z,46.70
2019-05-03T07:53:20.341Z,46.50
2019-05-03T07:55:51.725Z,45.20
2019-05-03T07:58:25.438Z,45.50
2019-05-03T08:01:07.091Z,45.70
2019-05-03T08:03:34.829Z,46.40
2019-05-03T08:06:05.117Z,46.40
2019-05-03T08:08:35.410Z,45.90
2019-05-03T08:11:05.462Z,46.50
2019-05-03T08:13:36.289Z,46.40
2019-05-03T08:16:06.024Z,44.80
2019-05-03T08:18:36.838Z,45.20
2019-05-03T08:21:06.265Z,44.90
2019-05-03T08:23:35.698Z,46.20
2019-05-03T08:26:05.928Z,46.10
2019-05-03T08:28:35.676Z,46.10
2019-05-03T08:31:10.349Z,45.30
2019-05-03T08:33:47.594Z,45.70
2019-05-03T08:36:17.301Z,45.50
2019-05-03T08:38:47.216Z,45.90
2019-05-03T08:41:25.322Z,47.00
2019-05-03T08:43:55.099Z,46.80
2019-05-03T08:46:25.318Z,47.00
2019-05-03T08:48:55.270Z,47.00
2019-05-03T08:51:25.208Z,47.60
2019-05-03T08:53:55.985Z,46.40
2019-05-03T08:56:25.605Z,46.20
2019-05-03T08:58:56.474Z,46.40
2019-05-03T09:01:26.383Z,47.10
2019-05-03T09:03:56.183Z,47.10
2019-05-03T09:06:26.007Z,45.80
2019-05-03T09:08:57.255Z,46.10
2019-05-03T09:11:34.062Z,45.50
2019-05-03T09:14:00.041Z,45.60
2019-05-03T09:16:29.865Z,45.30
2019-05-03T09:18:59.268Z,45.60
2019-05-03T09:21:28.981Z,45.80
2019-05-03T09:23:58.662Z,46.20
2019-05-03T09:26:29.573Z,46.20
2019-05-03T09:28:59.544Z,46.30
2019-05-03T09:31:29.296Z,47.60
2019-05-03T09:33:58.669Z,47.80
2019-05-03T09:36:29.094Z,47.50
2019-05-03T09:38:58.750Z,47.70
2019-05-03T09:41:29.213Z,47.80
2019-05-03T09:43:58.429Z,47.00
2019-05-03T09:46:28.126Z,46.40
2019-05-03T09:49:10.260Z,45.70
2019-05-03T09:51:29.298Z,45.80
2019-05-03T09:54:05.207Z,47.30
2019-05-03T09:56:56.056Z,47.80
2019-05-03T09:59:25.487Z,48.40
2019-05-03T10:01:55.560Z,47.70
2019-05-03T10:04:25.578Z,46.50
2019-05-03T10:06:56.417Z,47.00
2019-05-03T10:09:26.438Z,46.10
2019-05-03T10:11:56.149Z,46.40
2019-05-03T10:14:25.434Z,46.80
2019-05-03T10:17:09.082Z,46.80
2019-05-03T10:19:40.407Z,45.30
2019-05-03T10:22:11.478Z,44.70
2019-05-03T10:24:41.292Z,44.40
2019-05-03T10:27:10.685Z,43.60
2019-05-03T10:29:40.299Z,44.40
2019-05-03T10:32:15.126Z,44.70
2019-05-03T10:35:05.765Z,46.90
2019-05-03T10:37:36.463Z,47.10
2019-05-03T10:40:08.174Z,46.30
2019-05-03T10:42:36.861Z,46.30
2019-05-03T10:45:07.141Z,45.80
2019-05-03T10:47:36.492Z,46.20
2019-05-03T10:50:06.969Z,46.00
2019-05-03T10:52:40.814Z,47.30
2019-05-03T10:55:10.591Z,48.30
2019-05-03T10:57:45.028Z,47.10
2019-05-03T11:00:41.672Z,47.40
2019-05-03T11:02:49.538Z,47.50
2019-05-03T11:05:19.004Z,48.80
2019-05-03T11:07:48.748Z,48.60
2019-05-03T11:10:18.178Z,48.60
2019-05-03T11:12:47.874Z,48.00
2019-05-03T11:15:17.740Z,48.10
2019-05-03T11:17:47.399Z,47.90
2019-05-03T11:20:28.454Z,48.70
2019-05-03T11:22:51.938Z,48.90
2019-05-03T11:25:21.381Z,49.70
2019-05-03T11:27:52.791Z,49.00
2019-05-03T11:30:24.588Z,48.60
2019-05-03T11:32:55.745Z,48.80
2019-05-03T11:35:35.947Z,48.90
2019-05-03T11:38:15.056Z,48.90
2019-05-03T11:40:45.504Z,48.80
2019-05-03T11:43:15.519Z,49.30
2019-05-03T11:45:45.011Z,50.50
2019-05-03T11:48:14.867Z,51.00
2019-05-03T11:50:45.318Z,50.10
2019-05-03T11:53:14.949Z,50.40
2019-05-03T11:55:46.478Z,49.50
2019-05-03T11:58:23.027Z,50.00
2019-05-03T12:01:11.619Z,50.60
2019-05-03T12:03:44.880Z,50.90
2019-05-03T12:06:15.666Z,50.00
2019-05-03T12:08:44.865Z,49.60
2019-05-03T12:11:15.092Z,49.40
2019-05-03T12:13:45.734Z,48.40
2019-05-03T12:16:22.252Z,48.20
2019-05-03T12:18:53.533Z,47.40
2019-05-03T12:21:19.298Z,47.80
2019-05-03T12:23:50.349Z,48.10
2019-05-03T12:26:21.007Z,48.10
2019-05-03T12:28:51.245Z,47.10
2019-05-03T12:31:33.498Z,47.00
2019-05-03T12:33:54.894Z,47.30
2019-05-03T12:36:24.847Z,47.00
2019-05-03T12:38:54.817Z,45.90
2019-05-03T12:41:25.750Z,46.30
2019-05-03T12:43:55.461Z,45.90
2019-05-03T12:46:26.233Z,45.90
2019-05-03T12:48:56.136Z,46.20
2019-05-03T12:51:26.624Z,46.10
2019-05-03T12:53:56.247Z,46.90
2019-05-03T12:56:32.268Z,48.00
2019-05-03T12:59:10.926Z,48.50
2019-05-03T13:01:59.056Z,48.20
2019-05-03T13:04:30.513Z,48.40
2019-05-03T13:07:05.444Z,48.80
2019-05-03T13:09:35.957Z,48.20
2019-05-03T13:12:06.503Z,48.20
2019-05-03T13:14:36.320Z,46.80
2019-05-03T13:17:06.132Z,46.80
2019-05-03T13:19:35.737Z,47.90
2019-05-03T13:22:05.277Z,47.30
2019-05-03T13:24:34.854Z,46.80
2019-05-03T13:27:05.713Z,47.60
2019-05-03T13:29:35.705Z,46.30
2019-05-03T13:32:05.719Z,45.80
2019-05-03T13:34:35.534Z,46.30
2019-05-03T13:37:06.587Z,46.40
2019-05-03T13:39:36.285Z,46.60
2019-05-03T13:42:07.117Z,47.50
2019-05-03T13:44:36.940Z,47.70
2019-05-03T13:47:06.861Z,47.50
2019-05-03T13:49:36.202Z,48.80
2019-05-03T13:52:05.684Z,48.80
2019-05-03T13:54:36.494Z,49.60
2019-05-03T13:57:06.314Z,49.00
2019-05-03T13:59:36.642Z,49.50
2019-05-03T14:02:15.146Z,50.00
2019-05-03T14:04:49.458Z,50.20
2019-05-03T14:07:08.734Z,50.20
2019-05-03T14:09:38.438Z,49.70
2019-05-03T14:12:07.828Z,50.40
2019-05-03T14:14:55.828Z,50.60
2019-05-03T14:17:27.645Z,49.90
2019-05-03T14:19:59.151Z,50.00
2019-05-03T14:22:30.680Z,50.50
2019-05-03T14:25:00.134Z,50.40
2019-05-03T14:27:30.041Z,51.00
2019-05-03T14:29:59.779Z,49.00
2019-05-03T14:32:29.591Z,49.60
2019-05-03T14:34:58.889Z,48.60
2019-05-03T14:37:28.600Z,49.80
2019-05-03T14:39:58.213Z,49.30
2019-05-03T14:42:27.913Z,49.30
2019-05-03T14:44:57.831Z,49.30
2019-05-03T14:47:27.541Z,48.60
2019-05-03T14:49:57.249Z,50.20
2019-05-03T14:52:28.473Z,51.10
2019-05-03T14:54:59.642Z,49.00
2019-05-03T14:57:30.885Z,48.80
2019-05-03T15:00:02.113Z,49.40
2019-05-03T15:02:43.524Z,49.90
2019-05-03T15:05:07.194Z,49.00
2019-05-03T15:07:36.610Z,48.50
2019-05-03T15:10:06.909Z,48.00
2019-05-03T15:12:36.308Z,48.30
2019-05-03T15:15:07.766Z,48.30
2019-05-03T15:17:37.401Z,48.70
2019-05-03T15:20:10.160Z,48.80
2019-05-03T15:22:39.874Z,48.00
2019-05-03T15:25:09.309Z,47.10
2019-05-03T15:27:39.093Z,47.80
2019-05-03T15:30:08.829Z,48.40
2019-05-03T15:32:38.501Z,48.40
2019-05-03T15:35:08.704Z,48.80
2019-05-03T15:37:38.152Z,48.10
2019-05-03T15:40:08.047Z,48.60
2019-05-03T15:42:39.398Z,48.70
2019-05-03T15:45:10.743Z,49.10
2019-05-03T15:47:41.777Z,49.30
2019-05-03T15:50:11.184Z,49.50
2019-05-03T15:52:40.782Z,49.30
2019-05-03T15:55:11.423Z,49.60
2019-05-03T15:57:41.299Z,49.60
2019-05-03T16:00:15.024Z,49.20
2019-05-03T16:02:44.368Z,48.90
2019-05-03T16:05:15.605Z,49.00
2019-05-03T16:07:45.598Z,49.10
2019-05-03T16:10:15.420Z,49.00
2019-05-03T16:12:45.017Z,48.40
2019-05-03T16:15:15.862Z,48.70
2019-05-03T16:17:45.254Z,49.30
2019-05-03T16:20:15.081Z,48.70
2019-05-03T16:22:45.028Z,49.40
2019-05-03T16:25:16.230Z,49.90
2019-05-03T16:27:47.696Z,49.70
2019-05-03T16:30:27.786Z,50.20
2019-05-03T16:32:57.272Z,49.40
2019-05-03T16:35:26.582Z,50.30
2019-05-03T16:37:57.686Z,50.30
2019-05-03T16:40:27.602Z,50.20
2019-05-03T16:42:57.309Z,50.80
2019-05-03T16:45:27.230Z,51.60
2019-05-03T16:47:56.933Z,51.00
2019-05-03T16:50:27.773Z,51.20
2019-05-03T16:52:57.482Z,51.30
2019-05-03T16:55:27.302Z,51.60
2019-05-03T16:57:56.618Z,51.60
2019-05-03T17:00:26.137Z,52.00
2019-05-03T17:02:55.823Z,51.70
2019-05-03T17:05:27.161Z,51.80
2019-05-03T17:08:16.310Z,51.60
2019-05-03T17:10:49.860Z,51.10
2019-05-03T17:13:19.545Z,51.40
2019-05-03T17:15:49.351Z,51.80
2019-05-03T17:18:19.160Z,51.90
2019-05-03T17:20:49.997Z,52.10
2019-05-03T17:23:19.809Z,51.60
2019-05-03T17:25:49.415Z,52.50
2019-05-03T17:28:18.858Z,51.90
2019-05-03T17:30:48.229Z,52.40
2019-05-03T17:33:17.553Z,52.10
2019-05-03T17:35:47.440Z,51.60
2019-05-03T17:38:17.144Z,52.20
2019-05-03T17:41:07.038Z,51.60
2019-05-03T17:43:38.482Z,52.90
2019-05-03T17:46:09.829Z,51.90
2019-05-03T17:48:39.651Z,52.50
2019-05-03T17:51:10.690Z,52.50
2019-05-03T17:53:57.391Z,52.20
2019-05-03T17:56:31.810Z,52.70
2019-05-03T17:59:04.486Z,51.90
2019-05-03T18:01:35.366Z,53.20
2019-05-03T18:04:09.576Z,52.60
2019-05-03T18:06:57.681Z,52.50
2019-05-03T18:09:32.109Z,52.70
2019-05-03T18:12:04.651Z,53.10
2019-05-03T18:14:34.634Z,53.70
2019-05-03T18:17:05.820Z,53.90
2019-05-03T18:19:36.780Z,53.80
2019-05-03T18:22:06.398Z,54.00
2019-05-03T18:24:36.100Z,54.40
2019-05-03T18:27:05.947Z,54.90
2019-05-03T18:29:35.637Z,55.60
2019-05-03T18:32:05.581Z,55.30
2019-05-03T18:34:35.254Z,55.70
2019-05-03T18:37:05.073Z,55.90
2019-05-03T18:39:34.882Z,56.10
2019-05-03T18:42:06.892Z,55.70
2019-05-03T18:44:39.004Z,56.20
2019-05-03T18:47:11.273Z,56.00
2019-05-03T18:49:41.607Z,56.00
2019-05-03T18:52:11.309Z,56.30
2019-05-03T18:54:41.135Z,56.00
2019-05-03T18:57:16.631Z,56.70
2019-05-03T18:59:46.540Z,56.70
2019-05-03T19:02:16.441Z,57.50
2019-05-03T19:04:50.152Z,57.40
2019-05-03T19:07:37.833Z,57.40
2019-05-03T19:10:15.526Z,57.40
2019-05-03T19:12:46.473Z,57.40
2019-05-03T19:15:16.285Z,57.40
2019-05-03T19:17:47.649Z,57.40
2019-05-03T19:20:18.495Z,57.70
2019-05-03T19:22:48.279Z,57.50
2019-05-03T19:25:17.993Z,57.90
2019-05-03T19:27:47.420Z,58.10
2019-05-03T19:30:17.306Z,59.00
2019-05-03T19:32:46.770Z,58.80
2019-05-03T19:35:16.173Z,58.80
2019-05-03T19:37:47.162Z,58.80
2019-05-03T19:40:17.476Z,58.90
2019-05-03T19:42:48.071Z,58.90
2019-05-03T19:45:18.370Z,58.70
2019-05-03T19:47:49.604Z,58.50
2019-05-03T19:50:18.958Z,58.50
2019-05-03T19:53:05.395Z,58.40
2019-05-03T19:55:35.188Z,59.20
2019-05-03T19:58:05.623Z,59.00
2019-05-03T20:00:37.065Z,59.00
2019-05-03T20:03:08.360Z,58.60
2019-05-03T20:05:42.433Z,58.50
2019-05-03T20:08:15.949Z,58.70
2019-05-03T20:10:46.032Z,59.30
2019-05-03T20:13:15.757Z,58.60
2019-05-03T20:15:45.395Z,58.60
2019-05-03T20:18:17.837Z,58.80
2019-05-03T20:20:48.377Z,58.90
2019-05-03T20:23:18.298Z,58.90
2019-05-03T20:25:48.360Z,59.10
2019-05-03T20:28:18.536Z,59.40
2019-05-03T20:30:48.341Z,59.60
2019-05-03T20:33:18.255Z,59.70
2019-05-03T20:35:47.968Z,61.30
2019-05-03T20:38:18.912Z,60.60
2019-05-03T20:40:48.837Z,60.00
2019-05-03T20:43:28.560Z,59.90
2019-05-03T20:46:10.496Z,60.00
2019-05-03T20:48:39.809Z,60.10
2019-05-03T20:51:11.034Z,59.90
2019-05-03T20:53:41.228Z,60.00
2019-05-03T20:56:12.490Z,60.20
2019-05-03T20:58:44.659Z,60.20
2019-05-03T21:01:16.822Z,61.10
2019-05-03T21:03:50.313Z,60.50
2019-05-03T21:06:33.029Z,60.70
2019-05-03T21:08:56.458Z,60.90
2019-05-03T21:11:26.258Z,60.70
2019-05-03T21:13:59.828Z,60.60
2019-05-03T21:16:31.469Z,61.00
2019-05-03T21:19:02.477Z,61.20
2019-05-03T21:21:35.140Z,61.20
2019-05-03T21:24:09.541Z,61.20
2019-05-03T21:26:39.418Z,61.40
2019-05-03T21:29:09.349Z,61.60
2019-05-03T21:31:39.245Z,61.60
2019-05-03T21:34:08.601Z,61.70
2019-05-03T21:36:38.054Z,62.20
2019-05-03T21:39:07.758Z,62.40
2019-05-03T21:41:38.121Z,62.60
2019-05-03T21:44:08.002Z,62.60
2019-05-03T21:46:39.344Z,62.60
2019-05-03T21:49:10.694Z,62.80
2019-05-03T21:51:40.602Z,63.00
2019-05-03T21:54:10.420Z,63.00
2019-05-03T21:56:39.825Z,63.10
2019-05-03T21:59:09.634Z,63.30
2019-05-03T22:01:41.012Z,63.20
2019-05-03T22:04:11.197Z,63.20
2019-05-03T22:06:40.810Z,63.70
2019-05-03T22:09:10.868Z,63.60
2019-05-03T22:11:42.083Z,64.00
2019-05-03T22:14:15.071Z,64.50
2019-05-03T22:16:47.636Z,64.20
2019-05-03T22:19:19.445Z,64.00
2019-05-03T22:22:05.531Z,64.00
2019-05-03T22:24:42.121Z,63.90
2019-05-03T22:27:15.162Z,64.10
2019-05-03T22:29:44.802Z,64.10
2019-05-03T22:32:15.561Z,64.50
2019-05-03T22:34:46.282Z,64.20
2019-05-03T22:37:16.698Z,64.10
2019-05-03T22:39:47.678Z,64.50
2019-05-03T22:42:17.668Z,64.60
2019-05-03T22:44:47.424Z,64.60
2019-05-03T22:47:17.244Z,64.70
2019-05-03T22:49:46.946Z,64.90
2019-05-03T22:52:16.274Z,64.60
2019-05-03T22:54:45.953Z,64.70
2019-05-03T22:57:15.433Z,64.80
2019-05-03T22:59:45.281Z,64.90
2019-05-03T23:02:16.862Z,64.60
2019-05-03T23:04:46.346Z,64.40
2019-05-03T23:07:16.153Z,64.40
2019-05-03T23:09:45.848Z,64.20
2019-05-03T23:12:15.461Z,64.50
2019-05-03T23:14:44.885Z,64.50
2019-05-03T23:17:14.918Z,64.50
2019-05-03T23:19:46.088Z,64.50
2019-05-03T23:22:16.994Z,64.30
2019-05-03T23:24:47.802Z,64.00
2019-05-03T23:27:17.508Z,64.10
2019-05-03T23:29:47.323Z,64.00
2019-05-03T23:32:17.036Z,64.00
2019-05-03T23:34:46.633Z,64.00
2019-05-03T23:37:17.286Z,64.10
2019-05-03T23:39:46.989Z,63.90
2019-05-03T23:42:16.397Z,64.10
2019-05-03T23:44:45.994Z,63.90
2019-05-03T23:47:16.919Z,63.90
2019-05-03T23:49:46.307Z,64.60
2019-05-03T23:52:20.240Z,63.90
2019-05-03T23:54:49.956Z,64.00
2019-05-03T23:57:19.372Z,64.70
2019-05-03T23:59:49.066Z,64.20
